Time;durP1;ratioP1;P1;durP2;ratioP2;P2;SDS_P1;SDS_P2;PMS_P1;PMS_P2;Temp;Humidity;BMP_temperature;BMP_pressure;BME280_temperature;BME280_humidity;BME280_pressure;Samples;Min_cycle;Max_cycle;Signal;HPM_P1;HPM_P2
2022/03/14 00:01:41;;;;;;;16.08;8.63;;;;;;;8.25;100.00;95329.00;5035842;28;20444;-66
2022/03/14 00:04:06;;;;;;;13.38;7.72;;;;;;;8.20;100.00;95304.94;5053160;28;20471;-66
2022/03/14 00:06:32;;;;;;;11.13;7.30;;;;;;;8.08;100.00;95275.69;5035209;28;20029;-66
2022/03/14 00:08:58;;;;;;;12.25;7.07;;;;;;;8.05;100.00;95262.84;5052868;28;20140;-66
2022/03/14 00:11:26;;;;;;;11.43;6.97;;;;;;;8.02;100.00;95252.63;5035151;28;20107;-66
2022/03/14 00:13:54;;;;;;;10.82;7.28;;;;;;;7.97;100.00;95229.38;5051630;28;20028;-66
2022/03/14 00:16:41;;;;;;;12.10;7.15;;;;;;;7.95;100.00;95217.34;5052870;28;20439;-66
2022/03/14 00:19:09;;;;;;;9.60;6.63;;;;;;;7.91;100.00;95213.53;5052764;28;20119;-66
2022/03/14 00:21:38;;;;;;;9.43;6.82;;;;;;;7.90;100.00;95204.72;5052766;28;20025;-66
2022/03/14 00:24:04;;;;;;;11.02;6.85;;;;;;;7.87;100.00;95196.41;5052740;28;20168;-66
2022/03/14 00:26:29;;;;;;;12.27;6.20;;;;;;;7.83;100.00;95194.25;5052663;28;20541;-66
2022/03/14 00:29:01;;;;;;;9.52;6.10;;;;;;;7.81;100.00;95206.19;5034554;28;20053;-66
2022/03/14 00:31:33;;;;;;;9.60;6.03;;;;;;;7.77;100.00;95213.88;5052714;28;20025;-66
2022/03/14 00:34:02;;;;;;;12.38;6.72;;;;;;;7.73;100.00;95236.75;5052454;28;20299;-66
2022/03/14 00:36:30;;;;;;;8.95;5.85;;;;;;;7.70;100.00;95252.41;5034617;28;20016;-66
2022/03/14 00:39:01;;;;;;;8.00;5.97;;;;;;;7.67;100.00;95264.38;5052333;28;20104;-66
2022/03/14 00:41:32;;;;;;;7.80;5.30;;;;;;;7.65;100.00;95269.16;5040828;28;20221;-66
2022/03/14 00:44:02;;;;;;;8.60;5.80;;;;;;;7.61;100.00;95281.34;5033956;28;20074;-66
2022/03/14 00:46:27;;;;;;;7.18;5.30;;;;;;;7.59;100.00;95291.44;5034372;28;20025;-66
2022/03/14 00:48:55;;;;;;;7.88;5.10;;;;;;;7.57;100.00;95299.66;5011538;28;20561;-66
2022/03/14 00:51:21;;;;;;;7.32;5.20;;;;;;;7.55;100.00;95292.97;5034562;28;20159;-66
2022/03/14 00:53:47;;;;;;;7.03;4.82;;;;;;;7.52;100.00;95296.94;5052294;28;20100;-66
2022/03/14 00:56:20;;;;;;;5.65;4.25;;;;;;;7.50;100.00;95312.34;5052249;28;20476;-66
2022/03/14 00:58:45;;;;;;;6.43;4.35;;;;;;;7.49;100.00;95326.72;5034283;28;20116;-66
2022/03/14 01:01:11;;;;;;;6.28;4.43;;;;;;;7.46;100.00;95335.19;5034584;28;20520;-66
2022/03/14 01:03:37;;;;;;;5.70;4.30;;;;;;;7.46;100.00;95345.84;5052056;28;20507;-66
2022/03/14 01:06:03;;;;;;;5.97;4.55;;;;;;;7.45;100.00;95352.22;5034342;28;20033;-66
2022/03/14 01:08:28;;;;;;;7.15;4.68;;;;;;;7.44;100.00;95363.94;5052431;28;20029;-66
2022/03/14 01:10:54;;;;;;;6.45;4.43;;;;;;;7.43;100.00;95364.19;5052112;28;20112;-66
2022/03/14 01:13:29;;;;;;;7.43;4.55;;;;;;;7.43;100.00;95370.31;5052169;28;20024;-66
2022/03/14 01:15:54;;;;;;;6.47;4.65;;;;;;;7.40;100.00;95384.13;5034218;28;20357;-66
2022/03/14 01:18:19;;;;;;;5.72;4.13;;;;;;;7.40;100.00;95377.97;5051980;28;20028;-66
2022/03/14 01:20:45;;;;;;;6.65;4.32;;;;;;;7.39;100.00;95379.84;5052002;28;20028;-66
2022/03/14 01:23:14;;;;;;;5.65;4.35;;;;;;;7.38;100.00;95383.56;5052119;28;20024;-66
2022/03/14 01:25:43;;;;;;;6.82;4.68;;;;;;;7.39;100.00;95403.81;5051913;28;20483;-66
2022/03/14 01:28:08;;;;;;;6.13;4.63;;;;;;;7.39;100.00;95413.69;5033647;28;20080;-67
2022/03/14 01:30:34;;;;;;;7.00;4.40;;;;;;;7.38;100.00;95428.03;5051976;28;20071;-66
2022/03/14 01:33:00;;;;;;;6.78;4.72;;;;;;;7.39;100.00;95438.47;5051885;28;20032;-66
2022/03/14 01:35:26;;;;;;;6.65;4.43;;;;;;;7.33;100.00;95452.72;5050851;28;20025;-66
2022/03/14 01:37:52;;;;;;;6.72;3.92;;;;;;;7.26;100.00;95455.50;5034094;28;20021;-66
2022/03/14 01:40:33;;;;;;;5.18;3.28;;;;;;;7.19;100.00;95460.16;5049596;28;20372;-66
2022/03/14 01:42:59;;;;;;;6.53;3.80;;;;;;;7.16;100.00;95481.97;5025006;28;20033;-66
2022/03/14 01:45:24;;;;;;;4.18;3.33;;;;;;;7.09;100.00;95489.25;5051713;28;20036;-66
2022/03/14 01:47:53;;;;;;;4.88;3.30;;;;;;;7.01;100.00;95494.91;5047854;28;20025;-66
2022/03/14 01:50:19;;;;;;;3.55;2.67;;;;;;;6.92;100.00;95510.44;5031692;28;20029;-66
2022/03/14 01:52:50;;;;;;;3.30;2.42;;;;;;;6.90;100.00;95506.38;5051933;28;20082;-66
2022/03/14 01:55:15;;;;;;;2.28;1.88;;;;;;;6.79;100.00;95507.19;5051019;28;20017;-66
2022/03/14 01:57:41;;;;;;;2.45;1.70;;;;;;;6.73;100.00;95521.41;5035525;28;20125;-66
2022/03/14 02:00:11;;;;;;;2.40;1.75;;;;;;;6.61;100.00;95534.69;5055496;28;20025;-66
2022/03/14 02:02:36;;;;;;;3.33;0.98;;;;;;;6.49;100.00;95533.88;5054707;28;20029;-66
2022/03/14 02:05:02;;;;;;;1.67;0.50;;;;;;;6.37;100.00;95526.66;5055531;28;20032;-65
2022/03/14 02:07:31;;;;;;;0.40;0.40;;;;;;;6.30;100.00;95541.94;5055523;28;20025;-65
2022/03/14 02:09:58;;;;;;;0.30;0.30;;;;;;;6.17;100.00;95550.06;5055296;28;20024;-65
2022/03/14 02:12:24;;;;;;;0.57;0.50;;;;;;;6.05;100.00;95552.69;5054344;28;20376;-65
2022/03/14 02:14:50;;;;;;;1.10;0.40;;;;;;;5.93;100.00;95565.13;5055457;28;20035;-64
2022/03/14 02:17:24;;;;;;;0.57;0.57;;;;;;;5.90;100.00;95573.56;5055341;28;20017;-64
2022/03/14 02:19:58;;;;;;;2.15;0.50;;;;;;;5.80;100.00;95590.00;5054178;28;20048;-64
2022/03/14 02:22:24;;;;;;;0.50;0.40;;;;;;;5.72;100.00;95594.78;5055177;28;20116;-65
2022/03/14 02:24:49;;;;;;;0.95;0.57;;;;;;;5.71;100.00;95611.78;5045581;28;20807;-65
2022/03/14 02:27:15;;;;;;;0.40;0.40;;;;;;;5.70;100.00;95621.59;5032989;28;20460;-65
2022/03/14 02:29:42;;;;;;;0.55;0.55;;;;;;;5.66;100.00;95631.06;5042073;28;20552;-65
2022/03/14 02:32:08;;;;;;;0.70;0.50;;;;;;;5.65;100.00;95652.53;5054214;28;20480;-65
2022/03/14 02:34:35;;;;;;;0.50;0.50;;;;;;;5.60;100.00;95663.00;5052197;28;20513;-65
2022/03/14 02:37:02;;;;;;;0.40;0.40;;;;;;;5.56;100.00;95675.13;5036384;28;20514;-65
2022/03/14 02:39:28;;;;;;;0.73;0.68;;;;;;;5.53;100.00;95686.97;5053243;28;20086;-65
2022/03/14 02:41:54;;;;;;;0.52;0.50;;;;;;;5.53;100.00;95694.94;5028947;28;20488;-66
2022/03/14 02:44:19;;;;;;;0.40;0.40;;;;;;;5.48;100.00;95702.75;5049297;28;20056;-65
2022/03/14 02:46:48;;;;;;;0.30;0.30;;;;;;;5.46;100.00;95702.19;5054059;28;20476;-65
2022/03/14 02:49:16;;;;;;;0.35;0.30;;;;;;;5.49;100.00;95715.00;5053756;28;20498;-66
2022/03/14 02:51:46;;;;;;;0.40;0.40;;;;;;;5.47;100.00;95720.56;5035956;28;20032;-66
2022/03/14 02:54:14;;;;;;;0.38;0.38;;;;;;;5.43;100.00;95724.69;5053471;28;20025;-66
2022/03/14 02:56:41;;;;;;;0.52;0.43;;;;;;;5.44;100.00;95728.97;5053750;28;20048;-66
2022/03/14 02:59:10;;;;;;;0.30;0.30;;;;;;;5.40;100.00;95732.25;5049350;28;20414;-66
2022/03/14 03:01:39;;;;;;;0.30;0.30;;;;;;;5.36;100.00;95734.53;5052328;28;20025;-66
2022/03/14 03:04:04;;;;;;;0.40;0.40;;;;;;;5.37;100.00;95748.63;5052835;28;20025;-67
2022/03/14 03:06:32;;;;;;;0.30;0.30;;;;;;;5.34;100.00;95746.41;5052427;28;20114;-67
2022/03/14 03:08:58;;;;;;;0.50;0.30;;;;;;;5.35;100.00;95750.69;5034748;28;20028;-67
2022/03/14 03:11:23;;;;;;;0.20;0.20;;;;;;;5.32;100.00;95751.09;5053457;28;20036;-67
2022/03/14 03:13:56;;;;;;;0.30;0.30;;;;;;;5.28;100.00;95761.34;5035416;28;20387;-66
2022/03/14 03:16:22;;;;;;;0.65;0.35;;;;;;;5.23;100.00;95769.16;5053217;28;20028;-67
2022/03/14 03:18:47;;;;;;;0.20;0.20;;;;;;;5.21;100.00;95774.69;5035399;28;20404;-67
2022/03/14 03:21:16;;;;;;;2.20;0.30;;;;;;;5.22;100.00;95789.59;5053159;28;20037;-67
2022/03/14 03:23:42;;;;;;;0.25;0.25;;;;;;;5.17;100.00;95789.41;5052815;28;20078;-66
2022/03/14 03:26:10;;;;;;;0.43;0.30;;;;;;;5.15;100.00;95791.47;5039953;28;20380;-67
2022/03/14 03:28:36;;;;;;;0.22;0.22;;;;;;;5.14;100.00;95794.34;5028432;28;20102;-67
2022/03/14 03:34:04;;;;;;;0.20;0.20;;;;;;;5.18;100.00;95819.44;5043162;28;20032;-67
2022/03/14 03:36:33;;;;;;;0.20;0.20;;;;;;;5.18;100.00;95820.25;5053024;28;20374;-66
2022/03/14 03:38:58;;;;;;;0.20;0.20;;;;;;;5.21;100.00;95819.03;5052883;28;20074;-67
2022/03/14 03:41:25;;;;;;;0.20;0.20;;;;;;;5.18;100.00;95820.25;5052706;28;20535;-67
2022/03/14 03:43:50;;;;;;;0.30;0.30;;;;;;;5.18;100.00;95824.75;5052710;28;20029;-66
2022/03/14 03:46:18;;;;;;;0.38;0.28;;;;;;;5.18;100.00;95828.22;5052474;28;20102;-67
2022/03/14 03:48:44;;;;;;;0.20;0.20;;;;;;;5.14;100.00;95835.00;5052658;28;20051;-66
2022/03/14 03:51:09;;;;;;;0.20;0.20;;;;;;;5.14;100.00;95834.19;5052656;28;20025;-66
2022/03/14 03:53:34;;;;;;;0.20;0.20;;;;;;;5.14;100.00;95837.66;5052589;28;20029;-66
2022/03/14 03:56:00;;;;;;;0.20;0.20;;;;;;;5.13;100.00;95837.88;5052660;28;20028;-66
2022/03/14 03:58:25;;;;;;;0.20;0.20;;;;;;;5.15;100.00;95854.41;5052510;28;20483;-66
2022/03/14 04:00:54;;;;;;;0.20;0.15;;;;;;;5.15;100.00;95859.69;5039128;28;20107;-66
2022/03/14 04:03:20;;;;;;;0.20;0.20;;;;;;;5.16;100.00;95853.38;5034445;28;20028;-66
2022/03/14 04:05:49;;;;;;;0.25;0.25;;;;;;;5.13;100.00;95851.13;5051743;28;20087;-66
2022/03/14 04:08:14;;;;;;;0.20;0.20;;;;;;;5.08;100.00;95862.38;5052147;28;20480;-66
2022/03/14 04:10:41;;;;;;;0.25;0.20;;;;;;;5.04;100.00;95855.88;5034155;28;20079;-67
2022/03/14 04:13:07;;;;;;;0.20;0.20;;;;;;;5.02;100.00;95851.81;5052250;28;20025;-67
2022/03/14 04:15:40;;;;;;;0.20;0.20;;;;;;;5.04;100.00;95855.06;5051719;28;20021;-68
2022/03/14 04:18:05;;;;;;;0.20;0.20;;;;;;;5.01;100.00;95856.31;5051195;28;20513;-66
2022/03/14 04:20:31;;;;;;;0.45;0.30;;;;;;;4.98;100.00;95861.19;5050560;28;20060;-66
2022/03/14 04:22:56;;;;;;;0.22;0.22;;;;;;;4.97;100.00;95867.53;5052716;28;20499;-66
2022/03/14 04:25:31;;;;;;;1.20;0.20;;;;;;;4.91;100.00;95867.38;5045444;28;20392;-66
2022/03/14 04:27:59;;;;;;;0.95;0.20;;;;;;;4.87;100.00;95883.91;5045257;28;20124;-67
2022/03/14 04:30:25;;;;;;;0.20;0.20;;;;;;;4.84;100.00;95895.75;5034098;28;20021;-67
2022/03/14 04:32:56;;;;;;;0.30;0.30;;;;;;;4.85;100.00;95894.72;5029559;28;20092;-67
2022/03/14 04:35:21;;;;;;;0.20;0.20;;;;;;;4.81;100.00;95890.06;5051377;28;20392;-67
2022/03/14 04:37:47;;;;;;;0.30;0.30;;;;;;;4.81;100.00;95896.19;5051639;28;20028;-67
2022/03/14 04:40:15;;;;;;;0.20;0.20;;;;;;;4.80;100.00;95889.25;5051791;28;20023;-66
2022/03/14 04:42:41;;;;;;;0.25;0.20;;;;;;;4.75;100.00;95891.69;5051745;28;20063;-66
2022/03/14 04:45:07;;;;;;;0.40;0.20;;;;;;;4.79;100.00;95900.09;5051245;28;20029;-66
2022/03/14 04:47:34;;;;;;;0.20;0.20;;;;;;;4.80;100.00;95902.53;5033739;28;20451;-66
2022/03/14 04:50:00;;;;;;;0.75;0.22;;;;;;;4.79;100.00;95898.25;5051874;28;20032;-66
2022/03/14 04:52:28;;;;;;;0.40;0.20;;;;;;;4.78;100.00;95901.09;5033773;28;20135;-66
2022/03/14 04:55:03;;;;;;;0.30;0.30;;;;;;;4.71;100.00;95903.75;5051254;28;20024;-66
2022/03/14 04:57:31;;;;;;;0.20;0.20;;;;;;;4.68;100.00;95908.69;5034322;28;20075;-66
2022/03/14 05:00:00;;;;;;;0.40;0.35;;;;;;;4.64;100.00;95917.03;5033955;28;20570;-66
2022/03/14 05:02:25;;;;;;;0.25;0.25;;;;;;;4.57;100.00;95913.59;5051373;28;20079;-66
2022/03/14 05:04:54;;;;;;;1.35;0.30;;;;;;;4.50;100.00;95910.13;5032991;28;20029;-66
2022/03/14 05:07:20;;;;;;;0.70;0.30;;;;;;;4.49;100.00;95928.91;5051255;28;20444;-66
2022/03/14 05:09:45;;;;;;;0.30;0.30;;;;;;;4.43;100.00;95927.88;5033482;28;20103;-66
2022/03/14 05:12:11;;;;;;;1.20;0.30;;;;;;;4.39;100.00;95928.50;5051251;28;20017;-66
2022/03/14 05:14:50;;;;;;;0.30;0.30;;;;;;;4.30;100.00;95930.56;5050942;28;20025;-66
2022/03/14 05:17:17;;;;;;;0.88;0.40;;;;;;;4.23;100.00;95940.34;5051114;28;20505;-66
2022/03/14 05:19:52;;;;;;;0.40;0.40;;;;;;;4.14;100.00;95939.75;5051254;28;20557;-66
2022/03/14 05:22:20;;;;;;;0.40;0.40;;;;;;;4.11;100.00;95942.78;5051257;28;20032;-66
2022/03/14 05:24:46;;;;;;;0.30;0.30;;;;;;;4.07;100.00;95950.34;5032060;28;20111;-66
2022/03/14 05:27:12;;;;;;;0.30;0.30;;;;;;;4.04;100.00;95957.88;5029571;28;20556;-66
2022/03/14 05:29:37;;;;;;;0.45;0.30;;;;;;;4.02;100.00;95957.28;5009375;23;20058;-63
2022/03/14 05:32:03;;;;;;;0.30;0.30;;;;;;;3.96;100.00;95964.19;5011616;28;20029;-63
2022/03/14 05:34:29;;;;;;;0.20;0.20;;;;;;;3.90;100.00;95972.13;5007068;28;20495;-63
2022/03/14 05:37:00;;;;;;;0.40;0.40;;;;;;;3.82;100.00;95973.16;5015401;28;20030;-63
2022/03/14 05:39:28;;;;;;;0.40;0.40;;;;;;;3.74;100.00;95971.50;5004157;28;20042;-63
2022/03/14 05:41:55;;;;;;;0.35;0.35;;;;;;;3.67;100.00;95986.53;4996778;28;20026;-63
2022/03/14 05:44:21;;;;;;;0.30;0.30;;;;;;;3.62;100.00;95980.22;4996636;28;20110;-63
2022/03/14 05:46:52;;;;;;;0.35;0.30;;;;;;;3.57;100.00;95990.59;4985666;28;20110;-63
2022/03/14 05:49:17;;;;;;;0.80;0.38;;;;;;;3.56;100.00;96003.00;4996457;28;20038;-63
2022/03/14 05:51:42;;;;;;;0.65;0.50;;;;;;;3.55;100.00;96004.03;4979021;28;20049;-64
2022/03/14 05:54:09;;;;;;;0.40;0.40;;;;;;;3.54;100.00;96012.19;4996434;28;20366;-63
2022/03/14 05:56:34;;;;;;;0.30;0.30;;;;;;;3.51;100.00;96024.00;4996568;28;20030;-63
2022/03/14 05:59:00;;;;;;;2.00;0.45;;;;;;;3.49;100.00;96026.84;4978723;28;20049;-63
2022/03/14 06:01:25;;;;;;;0.73;0.50;;;;;;;3.48;100.00;96037.63;4996371;28;20034;-61
2022/03/14 06:03:53;;;;;;;1.75;0.30;;;;;;;3.45;100.00;96043.31;4992075;28;20392;-61
2022/03/14 06:06:18;;;;;;;0.40;0.30;;;;;;;3.46;100.00;96045.75;4996222;28;20535;-62
2022/03/14 06:08:56;;;;;;;0.57;0.40;;;;;;;3.41;100.00;96055.31;4978657;28;20018;-62
2022/03/14 06:11:24;;;;;;;0.30;0.30;;;;;;;3.34;100.00;96065.03;4996259;28;20572;-62
2022/03/14 06:13:50;;;;;;;0.57;0.30;;;;;;;3.20;100.00;96067.63;4978747;28;20161;-61
2022/03/14 06:16:15;;;;;;;1.52;0.40;;;;;;;3.09;100.00;96073.47;4996072;28;20109;-59
2022/03/14 06:18:44;;;;;;;0.28;0.20;;;;;;;3.02;100.00;96074.41;4996031;28;20529;-62
2022/03/14 06:21:09;;;;;;;3.42;0.40;;;;;;;2.97;100.00;96090.88;4982528;28;20038;-63
2022/03/14 06:23:36;;;;;;;0.38;0.35;;;;;;;2.95;100.00;96092.09;4973614;28;20392;-63
2022/03/14 06:26:01;;;;;;;0.47;0.47;;;;;;;2.91;100.00;96100.41;4993107;28;20105;-63
2022/03/14 06:28:27;;;;;;;1.00;0.50;;;;;;;2.89;100.00;96104.25;4973236;28;20129;-63
2022/03/14 06:30:55;;;;;;;0.43;0.40;;;;;;;2.91;100.00;96111.00;4974468;28;20030;-63
2022/03/14 06:33:21;;;;;;;0.30;0.30;;;;;;;2.91;100.00;96110.16;4973574;28;20023;-63
2022/03/14 06:35:46;;;;;;;0.60;0.50;;;;;;;2.95;100.00;96113.28;4979143;28;20080;-63
2022/03/14 06:38:12;;;;;;;0.30;0.30;;;;;;;3.02;100.00;96122.06;4975095;28;20308;-63
2022/03/14 06:40:42;;;;;;;0.30;0.30;;;;;;;3.07;100.00;96124.97;4975021;28;20022;-63
2022/03/14 06:43:11;;;;;;;0.30;0.30;;;;;;;3.16;100.00;96129.09;4995349;28;20038;-63
2022/03/14 06:45:38;;;;;;;1.70;0.70;;;;;;;3.20;100.00;96133.00;4982214;28;20522;-62
2022/03/14 06:48:05;;;;;;;0.70;0.40;;;;;;;3.27;100.00;96133.06;4973830;28;20033;-62
2022/03/14 06:50:38;;;;;;;0.50;0.40;;;;;;;3.33;100.00;96134.91;4980352;28;20621;-61
2022/03/14 06:53:04;;;;;;;;;;;;;;;3.43;100.00;96136.19;4988495;28;20046;-60
2022/03/14 06:55:33;;;;;;;0.82;0.60;;;;;;;3.55;100.00;96135.66;4974190;28;19914;-61
2022/03/14 06:57:59;;;;;;;0.50;0.30;;;;;;;3.69;100.00;96142.66;4973242;28;20022;-62
2022/03/14 07:00:26;;;;;;;0.57;0.57;;;;;;;3.85;100.00;96138.88;4973481;28;20022;-61
2022/03/14 07:02:52;;;;;;;0.50;0.50;;;;;;;3.96;100.00;96141.78;4974486;28;20038;-60
2022/03/14 07:05:20;;;;;;;0.90;0.50;;;;;;;4.15;100.00;96142.06;4958961;28;20027;-61
2022/03/14 07:07:46;;;;;;;0.50;0.50;;;;;;;4.34;100.00;96133.34;4987849;28;20030;-62
2022/03/14 07:10:18;;;;;;;0.50;0.50;;;;;;;4.53;100.00;96129.91;4989111;28;20473;-62
2022/03/14 07:12:46;;;;;;;1.03;0.70;;;;;;;4.74;100.00;96128.94;4988533;28;20493;-62
2022/03/14 07:15:16;;;;;;;0.40;0.40;;;;;;;4.99;100.00;96129.13;4973497;28;20569;-63
2022/03/14 07:17:42;;;;;;;0.52;0.50;;;;;;;5.23;100.00;96127.72;4974870;28;20029;-63
2022/03/14 07:20:09;;;;;;;0.90;0.60;;;;;;;5.56;100.00;96114.38;4977283;28;20023;-63
2022/03/14 07:22:48;;;;;;;0.73;0.73;;;;;;;5.89;100.00;96116.94;4994309;28;20027;-63
2022/03/14 07:25:28;;;;;;;1.25;1.10;;;;;;;6.24;100.00;96098.00;4977338;28;20358;-63
2022/03/14 07:27:58;;;;;;;0.60;0.60;;;;;;;6.46;100.00;96086.00;4887769;28;20082;-63
2022/03/14 07:30:23;;;;;;;1.60;0.75;;;;;;;6.75;100.00;96067.81;4951557;29;20043;-63
2022/03/14 07:32:49;;;;;;;0.70;0.70;;;;;;;6.90;100.00;96050.44;4943740;29;20481;-63
2022/03/14 07:35:15;;;;;;;0.40;0.40;;;;;;;7.06;100.00;96024.31;4948369;29;20027;-63
2022/03/14 07:37:41;;;;;;;0.50;0.50;;;;;;;7.38;100.00;95991.19;4953011;29;20038;-63
2022/03/14 07:40:08;;;;;;;0.40;0.40;;;;;;;7.59;100.00;95967.75;4945026;29;20035;-63
2022/03/14 07:42:59;;;;;;;0.40;0.40;;;;;;;7.76;100.00;95926.09;4955892;29;20038;-63
2022/03/14 07:45:27;;;;;;;0.75;0.45;;;;;;;8.17;100.00;95889.78;4938378;29;20035;-63
2022/03/14 07:47:59;;;;;;;0.50;0.50;;;;;;;8.20;100.00;95850.09;4955676;29;20457;-62
2022/03/14 07:50:30;;;;;;;0.50;0.40;;;;;;;8.42;100.00;95821.00;4955569;29;20047;-63
2022/03/14 07:52:56;;;;;;;0.60;0.40;;;;;;;8.55;100.00;95798.59;4943331;29;20027;-63
2022/03/14 07:55:25;;;;;;;0.30;0.30;;;;;;;8.74;100.00;95772.56;4953598;28;20035;-63
2022/03/14 07:57:52;;;;;;;1.10;0.68;;;;;;;9.05;100.00;95773.97;4954085;29;20027;-63
2022/03/14 08:00:19;;;;;;;0.30;0.30;;;;;;;9.29;100.00;95768.28;4955420;29;20042;-63
2022/03/14 08:02:46;;;;;;;0.30;0.30;;;;;;;9.41;100.00;95770.09;4955505;29;20131;-63
2022/03/14 08:05:16;;;;;;;0.30;0.30;;;;;;;9.34;100.00;95788.16;4955182;29;20182;-63
2022/03/14 08:07:46;;;;;;;0.40;0.40;;;;;;;9.43;100.00;95802.75;4955033;29;20027;-63
2022/03/14 08:10:13;;;;;;;0.40;0.40;;;;;;;9.41;100.00;95824.38;4949235;29;20196;-63
2022/03/14 08:12:54;;;;;;;0.68;0.40;;;;;;;9.49;100.00;95845.41;4954785;29;20089;-63
2022/03/14 08:15:25;;;;;;;1.52;0.50;;;;;;;9.73;100.00;95870.16;4955173;29;20023;-63
2022/03/14 08:18:07;;;;;;;0.40;0.40;;;;;;;10.02;100.00;95887.00;4937817;29;20506;-63
2022/03/14 08:20:39;;;;;;;0.50;0.45;;;;;;;10.30;100.00;95914.81;4955263;29;20544;-63
2022/03/14 08:23:08;;;;;;;1.40;0.40;;;;;;;10.44;100.00;95946.41;4955020;29;20037;-63
2022/03/14 08:25:40;;;;;;;0.40;0.40;;;;;;;10.66;100.00;95973.28;4953620;29;20386;-63
2022/03/14 08:28:05;;;;;;;0.30;0.30;;;;;;;10.66;100.00;96016.16;4954604;29;20031;-65
2022/03/14 08:30:31;;;;;;;0.32;0.32;;;;;;;10.90;100.00;96040.94;4953342;29;20106;-63
2022/03/14 08:32:57;;;;;;;1.77;0.30;;;;;;;10.84;100.00;96071.38;4954807;29;20031;-63
2022/03/14 08:35:27;;;;;;;0.30;0.30;;;;;;;10.90;100.00;96102.56;4950114;29;21467;-63
2022/03/14 08:37:56;;;;;;;0.40;0.30;;;;;;;10.93;100.00;96136.94;4935703;29;20034;-63
2022/03/14 08:40:23;;;;;;;0.50;0.50;;;;;;;11.31;100.00;96149.66;4943779;29;20032;-64
2022/03/14 08:42:51;;;;;;;0.50;0.40;;;;;;;11.55;100.00;96158.34;4916839;29;20434;-64
2022/03/14 08:45:20;;;;;;;0.40;0.40;;;;;;;11.55;100.00;96201.28;4928687;29;20028;-64
2022/03/14 08:47:53;;;;;;;0.43;0.40;;;;;;;11.76;100.00;96207.81;4943714;29;20490;-64
2022/03/14 08:50:28;;;;;;;;;;;;;;;11.39;100.00;96250.38;4954108;29;20391;-65
2022/03/14 08:52:57;;;;;;;0.30;0.30;;;;;;;11.29;100.00;96280.53;4945688;29;19930;-65
2022/03/14 08:55:22;;;;;;;0.40;0.40;;;;;;;11.26;100.00;96301.63;4947999;28;20374;-64
2022/03/14 08:58:01;;;;;;;0.30;0.30;;;;;;;11.35;100.00;96316.28;4945554;29;20034;-63
2022/03/14 09:00:27;;;;;;;0.43;0.43;;;;;;;11.63;100.00;96301.25;4936224;28;20023;-64
2022/03/14 09:02:54;;;;;;;0.80;0.80;;;;;;;12.08;100.00;96302.03;4952312;29;20480;-64
2022/03/14 09:05:20;;;;;;;1.38;0.57;;;;;;;12.34;100.00;96316.66;4951841;29;20030;-64
2022/03/14 09:07:49;;;;;;;0.68;0.40;;;;;;;12.76;100.00;96325.09;4947780;29;20466;-63
2022/03/14 09:10:17;;;;;;;0.40;0.40;;;;;;;12.75;100.00;96362.97;4949223;29;20033;-64
2022/03/14 09:12:44;;;;;;;0.50;0.47;;;;;;;12.90;100.00;96368.56;4952207;29;20035;-61
2022/03/14 09:15:11;;;;;;;0.45;0.45;;;;;;;13.01;100.00;96374.88;4953088;29;20381;-63
2022/03/14 09:17:54;;;;;;;0.70;0.70;;;;;;;13.08;100.00;96378.22;4932676;29;20106;-60
2022/03/14 09:20:21;;;;;;;0.82;0.65;;;;;;;13.13;100.00;96389.03;4933730;29;20035;-63
2022/03/14 09:23:12;;;;;;;0.40;0.40;;;;;;;13.05;100.00;96406.44;4953392;29;20071;-62
2022/03/14 09:25:38;;;;;;;0.38;0.38;;;;;;;12.97;100.00;96428.38;4952864;29;20433;-63
2022/03/14 09:28:03;;;;;;;1.10;0.40;;;;;;;13.13;100.00;96421.31;4951826;29;20106;-65
2022/03/14 09:30:32;;;;;;;0.30;0.30;;;;;;;13.50;100.00;96421.59;4953497;29;20493;-61
2022/03/14 09:33:00;;;;;;;0.60;0.50;;;;;;;13.63;100.00;96434.66;4953402;29;20028;-63
2022/03/14 09:35:30;;;;;;;0.50;0.50;;;;;;;13.72;100.00;96447.69;4950606;29;20109;-62
2022/03/14 09:38:01;;;;;;;1.92;0.40;;;;;;;13.86;100.00;96460.50;4943251;29;20031;-59
2022/03/14 09:40:32;;;;;;;0.50;0.50;;;;;;;13.96;100.00;96475.16;4953270;29;20395;-61
2022/03/14 09:42:59;;;;;;;1.17;0.50;;;;;;;14.07;100.00;96485.81;4953278;29;20034;-63
2022/03/14 09:45:26;;;;;;;0.40;0.40;;;;;;;14.10;100.00;96487.16;4940827;29;20166;-62
2022/03/14 09:48:03;;;;;;;0.65;0.50;;;;;;;13.90;100.00;96490.47;4951977;29;20039;-61
2022/03/14 09:50:34;;;;;;;0.50;0.50;;;;;;;14.10;100.00;96490.66;4952091;29;20027;-60
2022/03/14 09:53:05;;;;;;;0.35;0.35;;;;;;;14.26;100.00;96507.84;4936008;29;20062;-61
2022/03/14 09:55:37;;;;;;;0.50;0.50;;;;;;;14.28;100.00;96521.88;4952884;29;20478;-61
2022/03/14 09:58:03;;;;;;;0.40;0.40;;;;;;;14.52;100.00;96516.22;4951893;29;20110;-63
2022/03/14 10:00:31;;;;;;;1.25;0.40;;;;;;;14.54;100.00;96511.38;4953120;29;20046;-63
2022/03/14 10:02:57;;;;;;;0.40;0.40;;;;;;;14.41;100.00;96515.25;4953015;29;20546;-62
2022/03/14 10:05:25;;;;;;;3.38;0.63;;;;;;;14.52;100.00;96521.59;4935402;29;20023;-62
2022/03/14 10:07:51;;;;;;;3.63;0.60;;;;;;;14.69;100.00;96522.31;4951863;29;20031;-63
2022/03/14 10:10:16;;;;;;;0.50;0.50;;;;;;;14.63;100.00;96531.44;4944774;29;20036;-63
2022/03/14 10:12:43;;;;;;;0.70;0.70;;;;;;;14.75;100.00;96527.50;4935852;29;20038;-63
2022/03/14 10:15:10;;;;;;;2.33;0.88;;;;;;;14.74;100.00;96530.44;4952272;29;20027;-62
2022/03/14 10:17:35;;;;;;;0.60;0.52;;;;;;;14.55;100.00;96538.09;4952849;28;20046;-62
2022/03/14 10:20:03;;;;;;;0.60;0.60;;;;;;;14.16;100.00;96546.25;4956206;29;20035;-63
2022/03/14 10:22:35;;;;;;;0.60;0.60;;;;;;;14.23;100.00;96542.56;4955244;29;20057;-64
2022/03/14 10:25:04;;;;;;;1.73;0.70;;;;;;;14.02;100.00;96544.22;4956126;29;20478;-62
2022/03/14 10:27:32;;;;;;;0.50;0.50;;;;;;;14.29;100.00;96531.59;4945102;29;20046;-63
2022/03/14 10:29:58;;;;;;;0.70;0.70;;;;;;;14.62;100.00;96525.22;4934940;29;20040;-64
2022/03/14 10:32:30;;;;;;;1.67;0.70;;;;;;;14.63;100.00;96531.44;4934351;29;20376;-64
2022/03/14 10:35:00;;;;;;;;;;;;;;;14.94;100.00;96538.72;4938891;29;20924;-64
2022/03/14 10:37:28;;;;;;;2.33;1.10;;;;;;;15.12;100.00;96536.72;4918511;29;19914;-62
2022/03/14 10:40:03;;;;;;;0.90;0.60;;;;;;;15.36;100.00;96535.28;4935009;29;20550;-63
2022/03/14 10:42:39;;;;;;;0.70;0.70;;;;;;;15.47;100.00;96544.25;4937587;29;20513;-63
2022/03/14 10:45:18;;;;;;;0.60;0.60;;;;;;;15.47;100.00;96555.88;4938555;29;20039;-64
2022/03/14 10:47:52;;;;;;;0.65;0.65;;;;;;;15.52;100.00;96563.19;4920023;29;20059;-63
2022/03/14 10:50:28;;;;;;;0.90;0.80;;;;;;;15.33;100.00;96570.91;4947004;29;20406;-63
2022/03/14 10:53:00;;;;;;;1.92;0.60;;;;;;;15.34;100.00;96557.16;4941729;29;20032;-63
2022/03/14 10:55:33;;;;;;;;;;;;;;;15.43;100.00;96557.47;4938650;29;20091;-62
2022/03/14 10:58:07;;;;;;;0.63;0.63;;;;;;;15.57;100.00;96566.75;4918273;29;20342;-62
2022/03/14 11:00:58;;;;;;;1.88;0.70;;;;;;;15.43;100.00;96567.47;4935667;29;20284;-63
2022/03/14 11:03:37;;;;;;;0.73;0.70;;;;;;;15.77;100.00;96562.59;4935016;29;20031;-62
2022/03/14 11:06:08;;;;;;;1.10;1.00;;;;;;;15.87;100.00;96559.94;4933902;29;20055;-62
2022/03/14 11:08:45;;;;;;;1.00;0.80;;;;;;;16.24;100.00;96555.25;4944752;29;20111;-63
2022/03/14 11:11:23;;;;;;;1.10;0.70;;;;;;;16.24;99.38;96560.66;4940416;29;20032;-63
2022/03/14 11:13:51;;;;;;;0.90;0.88;;;;;;;16.38;96.13;96563.66;4947017;29;20032;-63
2022/03/14 11:16:19;;;;;;;0.80;0.80;;;;;;;16.37;97.56;96561.22;4947724;29;20106;-62
2022/03/14 11:18:49;;;;;;;0.80;0.80;;;;;;;16.31;97.84;96556.91;4936860;29;20062;-62
2022/03/14 11:21:16;;;;;;;1.40;1.10;;;;;;;16.35;97.25;96561.50;4935965;29;20036;-61
2022/03/14 11:23:55;;;;;;;1.05;0.95;;;;;;;16.46;92.45;96573.97;4930075;29;20058;-61
2022/03/14 11:26:23;;;;;;;1.00;0.90;;;;;;;16.52;90.35;96567.50;4936669;29;20475;-62
2022/03/14 11:28:50;;;;;;;1.00;0.90;;;;;;;16.61;94.31;96567.00;4951405;23;20917;-65
2022/03/14 11:31:25;;;;;;;1.48;1.10;;;;;;;16.94;96.52;96554.91;4974137;28;20512;-66
2022/03/14 11:33:57;;;;;;;1.73;1.00;;;;;;;17.05;92.81;96570.91;4967116;28;20473;-65
2022/03/14 11:36:23;;;;;;;;;;;;;;;17.11;89.55;96574.41;4974534;28;20027;-65
2022/03/14 11:38:48;;;;;;;1.33;1.10;;;;;;;17.29;91.38;96575.78;4988683;28;19964;-66
2022/03/14 11:41:15;;;;;;;0.85;0.85;;;;;;;17.64;91.63;96573.03;4955641;29;20031;-66